Princess Juliana International Airport

TNCM | SXM

Saint Martin

Thursday, September 19th, 2019 | 15:22

Weather

TNCM 191900Z 08010KT 060V120 9999 FEW019 32/24 Q1010 NOSIG

Charts

No Charts Available

Gates

68 Available

Runways

1 Available

Events

No events for this airport


New event